createdAt,value
2022-12-16T00:01:06.376Z,16.9
2022-12-16T00:06:06.656Z,16.6
2022-12-16T00:11:09.498Z,16.8
2022-12-16T00:16:12.125Z,16.9
2022-12-16T00:21:11.730Z,16.8
2022-12-16T00:26:12.023Z,16.9
2022-12-16T00:31:12.240Z,16.9
2022-12-16T00:36:12.144Z,16.9
2022-12-16T00:41:14.788Z,16.8
2022-12-16T00:46:14.670Z,16.9
2022-12-16T00:51:14.673Z,16.9
2022-12-16T00:56:14.876Z,16.9
2022-12-16T01:01:15.207Z,16.9
2022-12-16T01:06:15.228Z,16.9
2022-12-16T01:11:15.684Z,16.8
2022-12-16T01:16:15.946Z,16.8
2022-12-16T01:21:16.096Z,16.7
2022-12-16T01:26:16.407Z,16.7
2022-12-16T01:31:16.711Z,16.8
2022-12-16T01:36:16.772Z,16.8
2022-12-16T01:41:16.984Z,16.8
2022-12-16T01:46:17.434Z,16.7
2022-12-16T01:51:23.260Z,16.7
2022-12-16T01:56:22.357Z,16.8
2022-12-16T02:01:22.856Z,16.7
2022-12-16T02:06:25.795Z,16.8
2022-12-16T02:11:25.554Z,16.8
2022-12-16T02:16:25.806Z,16.7
2022-12-16T02:21:24.996Z,16.5
2022-12-16T02:26:25.433Z,16.8
2022-12-16T02:31:27.010Z,16.8
2022-12-16T02:36:24.702Z,16.7
2022-12-16T02:41:25.183Z,16.8
2022-12-16T02:46:25.138Z,16.7
2022-12-16T02:51:26.348Z,16.6
2022-12-16T02:56:26.445Z,16.8
2022-12-16T03:01:26.774Z,16.8
2022-12-16T03:06:27.032Z,16.8
2022-12-16T03:11:27.202Z,16.7
2022-12-16T03:16:27.631Z,16.8
2022-12-16T03:21:27.672Z,16.8
2022-12-16T03:26:27.831Z,16.6
2022-12-16T03:31:28.131Z,16.8
2022-12-16T03:36:28.234Z,16.7
2022-12-16T03:41:28.539Z,16.7
2022-12-16T03:46:31.556Z,16.7
2022-12-16T03:51:30.939Z,16.7
2022-12-16T03:56:33.792Z,16.6
2022-12-16T04:01:33.438Z,16.6
2022-12-16T04:06:33.557Z,16.7
2022-12-16T04:11:36.515Z,16.7
2022-12-16T04:16:36.229Z,16.7
2022-12-16T04:21:36.147Z,16.6
2022-12-16T04:26:39.129Z,16.7
2022-12-16T04:31:38.897Z,16.7
2022-12-16T04:36:38.848Z,16.7
2022-12-16T04:41:39.093Z,16.7
2022-12-16T04:46:39.370Z,16.7
2022-12-16T04:51:39.604Z,16.7
2022-12-16T04:56:40.024Z,16.5
2022-12-16T05:01:40.040Z,16.7
2022-12-16T05:06:42.996Z,16.7
2022-12-16T05:11:42.914Z,16.7
2022-12-16T05:16:43.162Z,16.6
2022-12-16T05:21:43.232Z,16.5
2022-12-16T05:26:45.908Z,16.7
2022-12-16T05:31:45.732Z,16.6
2022-12-16T05:36:45.886Z,16.7
2022-12-16T05:41:46.141Z,16.7
2022-12-16T05:46:46.544Z,16.7
2022-12-16T05:51:46.569Z,16.7
2022-12-16T05:56:46.524Z,16.7
2022-12-16T06:01:46.961Z,16.8
2022-12-16T06:06:47.074Z,16.8
2022-12-16T06:11:47.172Z,16.8
2022-12-16T06:16:47.604Z,16.8
2022-12-16T06:21:48.047Z,16.8
2022-12-16T06:26:48.322Z,16.8
2022-12-16T06:31:51.248Z,16.9
2022-12-16T06:36:50.984Z,16.7
2022-12-16T06:41:51.377Z,16.9
2022-12-16T06:46:51.457Z,16.9
2022-12-16T06:51:51.492Z,16.9
2022-12-16T06:56:51.838Z,16.9
2022-12-16T07:01:52.171Z,16.8
2022-12-16T07:06:52.309Z,16.9
2022-12-16T07:11:52.390Z,16.9
2022-12-16T07:16:52.662Z,16.9
2022-12-16T07:21:52.910Z,16.9
2022-12-16T07:26:53.342Z,16.8
2022-12-16T07:31:53.519Z,17
2022-12-16T07:36:53.213Z,17
2022-12-16T07:41:53.538Z,16.9
2022-12-16T07:46:54.049Z,17
2022-12-16T07:51:54.291Z,17
2022-12-16T07:56:54.632Z,17
2022-12-16T08:01:57.861Z,16.9
2022-12-16T08:06:57.463Z,17.1
2022-12-16T08:12:00.215Z,17.1
2022-12-16T08:17:00.074Z,17.1
2022-12-16T08:21:59.804Z,17.1
2022-12-16T08:27:00.779Z,17.1
2022-12-16T08:32:00.848Z,17.1
2022-12-16T08:37:01.088Z,17.1
2022-12-16T08:42:01.335Z,17.2
2022-12-16T08:47:01.484Z,17.2
2022-12-16T08:52:01.817Z,17.1
2022-12-16T08:57:01.819Z,17.3
2022-12-16T09:02:02.185Z,17.3
2022-12-16T09:07:02.337Z,17.3
2022-12-16T09:12:02.493Z,17.2
2022-12-16T09:17:02.848Z,17.4
2022-12-16T09:22:03.107Z,17.4
2022-12-16T09:27:03.326Z,17.3
2022-12-16T09:32:03.553Z,17.4
2022-12-16T09:37:03.755Z,17.2
2022-12-16T09:42:03.809Z,17.5
2022-12-16T09:47:08.301Z,17.5
2022-12-16T09:52:06.909Z,17.6
2022-12-16T09:57:06.693Z,17.6
2022-12-16T10:02:07.219Z,17.5
2022-12-16T10:07:07.415Z,17.6
2022-12-16T10:12:07.744Z,17.8
2022-12-16T10:17:10.707Z,17.8
2022-12-16T10:22:13.043Z,17.8
2022-12-16T10:27:12.945Z,17.9
2022-12-16T10:32:12.977Z,17.9
2022-12-16T10:37:16.458Z,17.9
2022-12-16T10:42:13.401Z,18
2022-12-16T10:47:13.932Z,18
2022-12-16T10:52:14.082Z,18
2022-12-16T10:57:14.441Z,18
2022-12-16T11:02:15.491Z,18.1
2022-12-16T11:07:16.216Z,18.4
2022-12-16T11:12:19.601Z,18.6
2022-12-16T11:17:19.534Z,18.7
2022-12-16T11:22:23.091Z,19
2022-12-16T11:27:22.982Z,18.9
2022-12-16T11:32:23.385Z,19.1
2022-12-16T11:37:23.678Z,19.3
2022-12-16T11:42:24.151Z,19.3
2022-12-16T11:47:24.578Z,19.3
2022-12-16T11:52:40.454Z,19.5
2022-12-16T11:57:27.550Z,19.8
2022-12-16T12:02:27.190Z,19.8
2022-12-16T12:07:27.602Z,19.6
2022-12-16T12:12:27.748Z,19.8
2022-12-16T12:17:27.897Z,19.9
2022-12-16T12:22:28.146Z,20.1
2022-12-16T12:27:28.243Z,20.2
2022-12-16T12:32:28.171Z,20.2
2022-12-16T12:37:31.165Z,20.2
2022-12-16T12:42:30.904Z,20.2
2022-12-16T12:47:31.119Z,20.3
2022-12-16T12:52:31.291Z,20.3
2022-12-16T12:57:31.153Z,20.3
2022-12-16T13:02:31.615Z,20.3
2022-12-16T13:07:31.852Z,20.4
2022-12-16T13:12:31.910Z,20.5
2022-12-16T13:17:32.149Z,20.5
2022-12-16T13:22:32.121Z,20.3
2022-12-16T13:27:32.330Z,20.3
2022-12-16T13:32:32.492Z,20
2022-12-16T13:37:34.044Z,20.1
2022-12-16T13:42:32.879Z,20.1
2022-12-16T13:47:32.675Z,20.1
2022-12-16T13:52:32.563Z,20.1
2022-12-16T13:57:32.675Z,20
2022-12-16T14:02:33.028Z,20
2022-12-16T14:07:33.136Z,20
2022-12-16T14:12:36.047Z,20.1
2022-12-16T14:17:35.527Z,20.1
2022-12-16T14:22:35.725Z,20.1
2022-12-16T14:27:35.870Z,20.1
2022-12-16T14:32:36.058Z,20.1
2022-12-16T14:37:36.092Z,20
2022-12-16T14:42:39.058Z,20.1
2022-12-16T14:47:38.808Z,20.1
2022-12-16T14:52:38.856Z,20
2022-12-16T14:57:39.079Z,20.1
2022-12-16T15:02:39.633Z,20.1
2022-12-16T15:07:39.620Z,20
2022-12-16T15:12:41.666Z,20
2022-12-16T15:17:44.449Z,20.1
2022-12-16T15:22:47.080Z,20.1
2022-12-16T15:27:46.670Z,20
2022-12-16T15:32:46.830Z,20.2
2022-12-16T15:37:47.084Z,20.1
2022-12-16T15:42:47.126Z,20.1
2022-12-16T15:47:47.464Z,20.1
2022-12-16T15:52:47.668Z,20.1
2022-12-16T15:57:50.395Z,20.2
2022-12-16T16:02:50.401Z,20.2
2022-12-16T16:07:50.434Z,20
2022-12-16T16:12:51.617Z,20.2
2022-12-16T16:17:56.130Z,20.2
2022-12-16T16:22:55.665Z,20.1
2022-12-16T16:27:56.950Z,20.2
2022-12-16T16:32:56.845Z,20.2
2022-12-16T16:37:56.952Z,20.1
2022-12-16T16:42:57.339Z,20.3
2022-12-16T16:47:57.833Z,20.3
2022-12-16T16:52:57.346Z,20.3
2022-12-16T16:57:57.649Z,20.2
2022-12-16T17:02:57.749Z,20.3
2022-12-16T17:07:57.821Z,20.3
2022-12-16T17:13:02.810Z,20.2
2022-12-16T17:17:58.255Z,20.1
2022-12-16T17:22:58.520Z,20.3
2022-12-16T17:27:58.445Z,20.3
2022-12-16T17:32:58.520Z,20.3
2022-12-16T17:37:58.678Z,20.3
2022-12-16T17:43:01.640Z,20.3
2022-12-16T17:48:03.838Z,20.3
2022-12-16T17:53:03.713Z,20.3
2022-12-16T17:58:03.912Z,20.4
2022-12-16T18:03:03.924Z,20.1
2022-12-16T18:08:03.343Z,19.8
2022-12-16T18:13:03.319Z,19.7
2022-12-16T18:18:06.340Z,19.5
2022-12-16T18:23:06.282Z,19.4
2022-12-16T18:28:06.146Z,19.3
2022-12-16T18:33:09.207Z,19.1
2022-12-16T18:38:12.199Z,19.1
2022-12-16T18:43:08.898Z,19
2022-12-16T18:48:08.981Z,19
2022-12-16T18:53:11.820Z,18.9
2022-12-16T18:58:34.695Z,18.9
2022-12-16T19:03:14.674Z,18.8
2022-12-16T19:08:14.764Z,18.7
2022-12-16T19:13:17.493Z,18.9
2022-12-16T19:18:19.836Z,18.7
2022-12-16T19:23:22.162Z,18.8
2022-12-16T19:28:24.705Z,18.8
2022-12-16T19:33:26.879Z,18.7
2022-12-16T19:38:30.846Z,18.7
2022-12-16T19:43:30.107Z,18.5
2022-12-16T19:48:30.338Z,18.7
2022-12-16T19:53:30.702Z,18.7
2022-12-16T19:58:30.978Z,18.7
2022-12-16T20:03:31.241Z,18.6
2022-12-16T20:08:33.861Z,18.6
2022-12-16T20:13:33.598Z,18.6
2022-12-16T20:18:33.534Z,18.4
2022-12-16T20:23:33.702Z,18.4
2022-12-16T20:28:33.848Z,18.5
2022-12-16T20:33:33.993Z,18.4
2022-12-16T20:38:34.279Z,18.5
2022-12-16T20:43:34.544Z,18.3
2022-12-16T20:48:34.499Z,18.5
2022-12-16T20:53:37.889Z,18.5
2022-12-16T20:58:36.864Z,18.3
2022-12-16T21:03:40.142Z,18.4
2022-12-16T21:08:39.238Z,18.2
2022-12-16T21:13:39.497Z,18.4
2022-12-16T21:18:39.644Z,18.4
2022-12-16T21:23:42.943Z,18.4
2022-12-16T21:28:42.237Z,18.4
2022-12-16T21:33:42.660Z,18.4
2022-12-16T21:38:42.982Z,18.4
2022-12-16T21:43:43.521Z,18.3
2022-12-16T21:48:43.372Z,18.4
2022-12-16T21:53:44.016Z,18.4
2022-12-16T21:58:46.483Z,18.4
2022-12-16T22:03:46.309Z,18.3
2022-12-16T22:08:46.722Z,18.3
2022-12-16T22:13:49.551Z,18.3
2022-12-16T22:18:49.276Z,18.3
2022-12-16T22:23:49.524Z,18.3
2022-12-16T22:28:49.614Z,18.3
2022-12-16T22:33:50.060Z,18.3
2022-12-16T22:38:50.121Z,18.3
2022-12-16T22:43:50.301Z,18.2
2022-12-16T22:48:50.311Z,18.3
2022-12-16T22:53:50.491Z,18.2
2022-12-16T22:58:53.417Z,18.3
2022-12-16T23:03:52.886Z,18.2
2022-12-16T23:08:53.228Z,18.3
2022-12-16T23:13:53.572Z,18.3
2022-12-16T23:18:56.413Z,18.2
2022-12-16T23:23:53.894Z,18.2
2022-12-16T23:28:55.135Z,18.2
2022-12-16T23:33:56.943Z,18.2
2022-12-16T23:38:56.712Z,18.2
2022-12-16T23:43:56.970Z,18.2
2022-12-16T23:48:56.884Z,18.2
2022-12-16T23:53:57.230Z,18.2
2022-12-16T23:58:59.962Z,18.2
